Time;durP1;ratioP1;P1;durP2;ratioP2;P2;SDS_P1;SDS_P2;PMS_P1;PMS_P2;Temp;Humidity;BMP_temperature;BMP_pressure;BME280_temperature;BME280_humidity;BME280_pressure;Samples;Min_cycle;Max_cycle;Signal;HPM_P1;HPM_P2
2021/09/16 00:02:00;;;;;;;3.42;0.95;;;19.10;99.90;;;;;;4990127;28;20260;-69
2021/09/16 00:04:28;;;;;;;0.65;0.60;;;19.00;99.90;;;;;;4990459;28;20241;-69
2021/09/16 00:06:55;;;;;;;2.13;1.30;;;18.80;99.90;;;;;;4990881;28;20209;-69
2021/09/16 00:09:22;;;;;;;4.50;1.05;;;18.80;99.90;;;;;;4994549;28;20204;-69
2021/09/16 00:11:49;;;;;;;2.78;0.80;;;19.00;99.90;;;;;;4994710;28;20221;-69
2021/09/16 00:14:16;;;;;;;1.52;0.75;;;19.10;99.90;;;;;;4994532;28;20299;-69
2021/09/16 00:16:44;;;;;;;3.38;1.10;;;18.90;99.90;;;;;;4994151;28;20216;-69
2021/09/16 00:19:11;;;;;;;1.10;0.68;;;18.90;99.90;;;;;;4994174;28;20208;-70
2021/09/16 00:21:38;;;;;;;1.80;0.90;;;18.80;99.90;;;;;;4994356;28;20208;-70
2021/09/16 00:24:06;;;;;;;1.65;1.00;;;18.80;99.90;;;;;;4993840;28;20209;-70
2021/09/16 00:26:33;;;;;;;1.98;1.10;;;18.90;99.90;;;;;;4993973;28;20235;-70
2021/09/16 00:29:00;;;;;;;1.20;1.00;;;18.80;99.90;;;;;;4994026;28;20209;-70
2021/09/16 00:31:27;;;;;;;4.03;1.27;;;18.90;99.90;;;;;;4993650;28;20244;-70
2021/09/16 00:33:55;;;;;;;1.65;0.60;;;19.00;99.90;;;;;;4993342;28;20212;-70
2021/09/16 00:36:22;;;;;;;1.20;0.80;;;19.00;99.90;;;;;;4994148;28;20212;-70
2021/09/16 00:38:49;;;;;;;1.92;1.13;;;18.90;99.90;;;;;;4994302;28;20326;-70
2021/09/16 00:41:17;;;;;;;1.65;0.77;;;18.80;99.90;;;;;;4993866;28;20630;-70
2021/09/16 00:43:44;;;;;;;0.75;0.55;;;18.80;99.90;;;;;;4993877;28;20209;-70
2021/09/16 00:46:11;;;;;;;0.90;0.82;;;18.70;99.90;;;;;;4992975;28;21019;-70
2021/09/16 00:48:38;;;;;;;2.60;0.73;;;18.70;99.90;;;;;;4994245;28;20939;-70
2021/09/16 00:51:06;;;;;;;4.35;0.93;;;18.90;99.90;;;;;;4993140;28;20561;-70
2021/09/16 00:53:34;;;;;;;3.60;1.17;;;19.10;99.90;;;;;;4993685;28;20589;-70
2021/09/16 00:56:01;;;;;;;3.30;0.88;;;19.10;99.90;;;;;;4993146;28;20209;-70
2021/09/16 00:58:30;;;;;;;1.52;0.90;;;19.20;99.90;;;;;;4993243;28;20263;-70
2021/09/16 01:00:57;;;;;;;1.50;1.13;;;19.20;99.90;;;;;;4993062;28;20208;-70
2021/09/16 01:03:25;;;;;;;2.83;1.38;;;19.20;99.90;;;;;;4993861;28;20255;-70
2021/09/16 01:05:53;;;;;;;1.30;1.00;;;19.10;99.90;;;;;;4993580;28;20240;-70
2021/09/16 01:08:21;;;;;;;2.42;0.57;;;19.00;99.90;;;;;;4993259;28;20639;-70
2021/09/16 01:10:49;;;;;;;4.03;1.10;;;18.80;99.90;;;;;;4993622;28;20217;-70
2021/09/16 01:13:16;;;;;;;1.20;1.05;;;18.80;99.90;;;;;;4992675;28;20201;-70
2021/09/16 01:15:43;;;;;;;2.03;0.93;;;18.80;99.90;;;;;;4993260;28;20673;-70
2021/09/16 01:18:10;;;;;;;2.50;0.93;;;18.90;99.90;;;;;;4992101;28;20205;-70
2021/09/16 01:20:37;;;;;;;2.65;1.02;;;19.00;99.90;;;;;;4992850;28;20719;-69
2021/09/16 01:23:05;;;;;;;3.22;1.10;;;19.10;99.90;;;;;;4992752;28;20260;-68
2021/09/16 01:25:34;;;;;;;2.15;1.08;;;19.10;99.90;;;;;;4992995;28;20724;-68
2021/09/16 01:28:02;;;;;;;1.73;1.20;;;19.10;99.90;;;;;;4992458;28;20209;-68
2021/09/16 01:30:30;;;;;;;1.73;0.80;;;19.10;99.90;;;;;;4992722;28;20633;-68
2021/09/16 01:32:58;;;;;;;9.13;1.00;;;19.10;99.90;;;;;;4990892;28;20208;-68
2021/09/16 01:35:26;;;;;;;1.92;0.80;;;19.10;99.90;;;;;;4992825;28;20348;-68
2021/09/16 01:37:54;;;;;;;4.80;1.20;;;19.10;99.90;;;;;;4992423;28;20213;-70
2021/09/16 01:40:22;;;;;;;2.97;1.52;;;19.10;99.90;;;;;;4992610;28;20681;-69
2021/09/16 01:42:49;;;;;;;2.88;1.48;;;19.10;99.90;;;;;;4992636;28;20209;-70
2021/09/16 01:45:23;;;;;;;0.93;0.82;;;19.10;99.90;;;;;;4992738;28;20229;-69
2021/09/16 01:47:50;;;;;;;4.07;1.25;;;19.20;99.90;;;;;;4992978;28;20208;-69
2021/09/16 01:50:19;;;;;;;1.38;1.27;;;19.20;99.90;;;;;;4992621;28;20258;-70
2021/09/16 01:52:46;;;;;;;1.40;0.85;;;19.10;99.90;;;;;;4992520;28;20271;-70
2021/09/16 01:55:13;;;;;;;2.33;0.93;;;19.10;99.90;;;;;;4992261;28;20275;-70
2021/09/16 01:57:42;;;;;;;3.97;1.13;;;19.10;99.90;;;;;;4992533;28;20205;-70
2021/09/16 02:00:11;;;;;;;2.65;1.40;;;19.10;99.90;;;;;;4991920;28;20217;-70
2021/09/16 02:02:38;;;;;;;3.30;1.10;;;19.10;99.90;;;;;;4992653;28;20204;-70
2021/09/16 02:05:05;;;;;;;3.15;1.10;;;18.90;99.90;;;;;;4991675;28;20225;-70
2021/09/16 02:07:32;;;;;;;1.20;0.88;;;18.90;99.90;;;;;;4992096;28;20225;-70
2021/09/16 02:09:59;;;;;;;4.10;1.88;;;18.90;99.90;;;;;;4991831;28;20282;-71
2021/09/16 02:12:26;;;;;;;2.28;1.50;;;19.00;99.90;;;;;;4992334;28;20261;-70
2021/09/16 02:14:55;;;;;;;2.80;0.98;;;19.00;99.90;;;;;;4991800;28;20263;-70
2021/09/16 02:17:21;;;;;;;10.95;1.65;;;18.90;99.90;;;;;;4992007;28;20209;-70
2021/09/16 02:19:48;;;;;;;2.95;0.98;;;18.80;99.90;;;;;;4992593;28;20209;-69
2021/09/16 02:22:15;;;;;;;1.63;0.80;;;18.70;99.90;;;;;;4991528;28;20259;-69
2021/09/16 02:24:42;;;;;;;2.60;1.17;;;18.70;99.90;;;;;;4992152;28;20209;-71
2021/09/16 02:27:09;;;;;;;4.13;2.03;;;18.70;99.90;;;;;;4991097;28;20201;-69
2021/09/16 02:29:36;;;;;;;5.18;1.25;;;18.70;99.90;;;;;;4991666;28;20247;-69
2021/09/16 02:32:06;;;;;;;1.10;0.95;;;18.70;99.90;;;;;;4991332;28;20208;-69
2021/09/16 02:34:33;;;;;;;1.60;1.30;;;18.60;99.90;;;;;;4991796;28;20268;-69
2021/09/16 02:36:59;;;;;;;2.67;1.33;;;18.70;99.90;;;;;;4991379;28;20271;-70
2021/09/16 02:39:26;;;;;;;3.13;1.25;;;18.80;99.90;;;;;;4992102;28;20201;-70
2021/09/16 02:41:53;;;;;;;3.25;1.45;;;18.80;99.90;;;;;;4991116;28;20263;-69
2021/09/16 02:44:20;;;;;;;3.63;1.55;;;18.80;99.90;;;;;;4991725;28;20263;-68
2021/09/16 02:46:47;;;;;;;1.73;1.63;;;18.80;99.90;;;;;;4991674;28;20653;-68
2021/09/16 02:49:16;;;;;;;1.27;1.17;;;18.80;99.90;;;;;;4990959;28;20735;-69
2021/09/16 02:51:43;;;;;;;3.92;0.98;;;18.80;99.90;;;;;;4991543;28;20209;-68
2021/09/16 02:54:10;;;;;;;5.03;1.45;;;18.80;99.90;;;;;;4991015;28;20205;-69
2021/09/16 02:56:37;;;;;;;3.45;1.17;;;18.80;99.90;;;;;;4991337;28;20200;-69
2021/09/16 02:59:04;;;;;;;3.33;1.73;;;18.80;99.90;;;;;;4991227;28;20256;-69
2021/09/16 03:01:31;;;;;;;1.30;1.00;;;18.90;99.90;;;;;;4991179;28;20209;-69
2021/09/16 03:03:58;;;;;;;1.67;1.02;;;18.80;99.90;;;;;;4990960;28;20642;-69
2021/09/16 03:06:26;;;;;;;5.22;1.70;;;18.80;99.90;;;;;;4990859;28;20224;-70
2021/09/16 03:08:53;;;;;;;2.70;1.80;;;18.90;99.90;;;;;;4990504;28;20276;-69
2021/09/16 03:11:20;;;;;;;5.00;1.42;;;18.80;99.90;;;;;;4991504;28;20263;-70
2021/09/16 03:13:47;;;;;;;2.28;1.33;;;18.80;99.90;;;;;;4991713;28;20209;-69
2021/09/16 03:16:14;;;;;;;3.42;2.28;;;18.70;99.90;;;;;;4990616;28;20259;-68
2021/09/16 03:18:41;;;;;;;3.45;2.20;;;18.70;99.90;;;;;;4991187;28;20764;-69
2021/09/16 03:21:08;;;;;;;3.67;1.38;;;18.60;99.90;;;;;;4990842;28;20236;-69
2021/09/16 03:23:36;;;;;;;3.20;1.88;;;18.60;99.90;;;;;;4990714;28;20209;-69
2021/09/16 03:26:04;;;;;;;2.38;1.60;;;18.50;99.90;;;;;;4990748;28;20591;-69
2021/09/16 03:28:31;;;;;;;4.53;1.83;;;18.50;99.90;;;;;;4990894;28;20205;-69
2021/09/16 03:30:58;;;;;;;1.58;1.48;;;18.50;99.90;;;;;;4990688;28;20208;-68
2021/09/16 03:33:25;;;;;;;2.13;1.73;;;18.60;99.90;;;;;;4990746;28;20209;-70
2021/09/16 03:35:52;;;;;;;3.90;2.40;;;18.50;99.90;;;;;;4991230;28;20255;-70
2021/09/16 03:38:19;;;;;;;2.70;2.10;;;18.50;99.90;;;;;;4991153;28;20213;-70
2021/09/16 03:40:47;;;;;;;3.08;1.90;;;18.60;99.90;;;;;;4990850;28;20581;-71
2021/09/16 03:43:14;;;;;;;3.88;2.33;;;18.80;99.90;;;;;;4993702;28;20209;-71
2021/09/16 03:45:41;;;;;;;3.25;1.67;;;18.90;99.90;;;;;;4994850;28;20228;-72
2021/09/16 03:48:08;;;;;;;3.25;1.95;;;18.90;99.90;;;;;;4994490;28;20213;-73
2021/09/16 03:50:36;;;;;;;2.58;1.50;;;18.90;99.90;;;;;;4994765;28;20627;-72
2021/09/16 03:53:03;;;;;;;1.55;1.45;;;19.00;99.90;;;;;;4994183;28;20287;-72
2021/09/16 03:55:30;;;;;;;2.85;1.85;;;19.00;99.90;;;;;;4994785;28;20220;-72
2021/09/16 03:57:58;;;;;;;3.80;2.10;;;19.00;99.90;;;;;;4994197;28;20208;-70
2021/09/16 04:00:26;;;;;;;4.72;1.48;;;18.90;99.90;;;;;;4994840;28;20209;-73
2021/09/16 04:02:53;;;;;;;3.38;1.77;;;18.80;99.90;;;;;;4994161;28;20217;-72
2021/09/16 04:05:20;;;;;;;2.60;1.77;;;18.80;99.90;;;;;;4994879;28;20208;-72
2021/09/16 04:07:47;;;;;;;2.72;1.60;;;18.80;99.90;;;;;;4994265;28;20217;-71
2021/09/16 04:10:14;;;;;;;5.15;3.03;;;18.90;99.90;;;;;;4992093;28;20216;-71
2021/09/16 04:12:40;;;;;;;4.43;2.60;;;18.90;99.90;;;;;;4987860;28;20259;-72
2021/09/16 04:15:10;;;;;;;4.07;2.40;;;18.90;99.90;;;;;;4991287;28;20208;-72
2021/09/16 04:17:37;;;;;;;4.53;2.45;;;18.90;99.90;;;;;;4994160;28;20209;-71
2021/09/16 04:20:04;;;;;;;9.32;3.15;;;18.90;99.90;;;;;;4993814;28;20209;-71
2021/09/16 04:22:31;;;;;;;5.22;2.75;;;18.90;99.90;;;;;;4993863;28;20208;-72
2021/09/16 04:25:00;;;;;;;4.50;2.60;;;18.90;99.90;;;;;;4993308;28;20744;-72
2021/09/16 04:27:27;;;;;;;5.07;3.38;;;18.90;99.90;;;;;;4993853;28;20267;-72
2021/09/16 04:29:54;;;;;;;8.80;4.65;;;18.90;99.90;;;;;;4993796;28;20264;-70
2021/09/16 04:32:23;;;;;;;5.50;5.00;;;19.00;99.90;;;;;;4993955;28;20209;-69
2021/09/16 04:34:50;;;;;;;5.13;4.65;;;19.00;99.90;;;;;;4994222;28;20689;-70
2021/09/16 04:37:18;;;;;;;6.13;5.00;;;18.90;99.90;;;;;;4993476;28;20213;-69
2021/09/16 04:39:45;;;;;;;8.98;5.90;;;18.80;99.90;;;;;;4993702;28;20212;-71
2021/09/16 04:42:14;;;;;;;6.28;5.13;;;18.70;99.90;;;;;;4992911;28;20255;-76
2021/09/16 04:44:42;;;;;;;5.63;4.82;;;18.60;99.90;;;;;;4993744;28;20712;-70
2021/09/16 04:47:11;;;;;;;8.27;5.85;;;18.60;99.90;;;;;;4993036;28;20240;-74
2021/09/16 04:49:39;;;;;;;7.57;6.47;;;18.60;99.90;;;;;;4993350;28;20205;-72
2021/09/16 04:52:07;;;;;;;10.45;8.30;;;18.50;99.90;;;;;;4992873;28;20271;-70
2021/09/16 04:54:34;;;;;;;10.23;8.40;;;18.40;99.90;;;;;;4993163;28;20695;-70
2021/09/16 04:57:01;;;;;;;10.60;8.20;;;18.30;99.90;;;;;;4993123;28;20217;-71
2021/09/16 04:59:29;;;;;;;9.65;7.35;;;18.30;99.90;;;;;;4993401;28;20669;-73
2021/09/16 05:01:56;;;;;;;11.52;7.47;;;18.50;99.90;;;;;;4992976;28;20209;-69
2021/09/16 05:04:24;;;;;;;12.13;8.82;;;18.60;99.90;;;;;;4993216;28;20643;-72
2021/09/16 05:06:52;;;;;;;11.38;9.05;;;18.50;99.90;;;;;;4993299;28;20250;-72
2021/09/16 05:09:19;;;;;;;11.70;8.63;;;18.60;99.90;;;;;;4993331;28;20689;-72
2021/09/16 05:11:46;;;;;;;12.13;9.57;;;18.50;99.90;;;;;;4993802;28;20201;-72
2021/09/16 05:14:13;;;;;;;9.85;8.07;;;18.50;99.90;;;;;;4992237;28;20205;-70
2021/09/16 05:16:41;;;;;;;12.20;8.38;;;18.40;99.90;;;;;;4991090;28;20220;-75
2021/09/16 05:19:08;;;;;;;9.00;8.05;;;18.40;99.90;;;;;;4990735;28;20208;-72
2021/09/16 05:21:35;;;;;;;12.10;8.57;;;18.40;99.90;;;;;;4991759;28;20209;-77
2021/09/16 05:24:04;;;;;;;9.52;8.52;;;18.50;99.90;;;;;;4991697;28;20205;-74
2021/09/16 05:26:31;;;;;;;12.85;8.48;;;18.50;99.90;;;;;;4990399;28;20240;-73
2021/09/16 05:28:58;;;;;;;12.40;9.07;;;18.60;99.90;;;;;;4991366;28;20205;-77
2021/09/16 05:31:25;;;;;;;14.27;8.70;;;18.60;99.90;;;;;;4992682;28;20204;-70
2021/09/16 05:33:53;;;;;;;13.85;10.82;;;18.60;99.90;;;;;;4991280;28;20447;-75
2021/09/16 05:36:20;;;;;;;12.32;9.25;;;18.50;99.90;;;;;;4992670;28;20216;-73
2021/09/16 05:38:47;;;;;;;9.73;8.77;;;18.50;99.90;;;;;;4991987;28;20208;-73
2021/09/16 05:41:15;;;;;;;10.18;8.52;;;18.50;99.90;;;;;;4988822;28;20209;-71
2021/09/16 05:43:42;;;;;;;12.13;7.93;;;18.60;99.90;;;;;;4992391;28;20227;-69
2021/09/16 05:46:10;;;;;;;9.02;7.97;;;18.60;99.90;;;;;;4991835;28;20618;-70
2021/09/16 05:48:37;;;;;;;9.60;6.47;;;18.70;99.90;;;;;;4992209;28;20673;-69
2021/09/16 05:51:04;;;;;;;9.40;8.43;;;18.70;99.90;;;;;;4991767;28;20606;-70
2021/09/16 05:53:31;;;;;;;15.38;8.43;;;18.60;99.90;;;;;;4986501;28;20215;-70
2021/09/16 05:55:58;;;;;;;10.45;7.47;;;18.70;99.90;;;;;;4992176;28;20213;-70
2021/09/16 05:58:26;;;;;;;9.77;6.45;;;18.90;99.90;;;;;;4992847;28;20553;-70
2021/09/16 06:00:53;;;;;;;9.45;7.25;;;18.80;99.90;;;;;;4991609;28;20205;-71
2021/09/16 06:03:20;;;;;;;13.55;7.28;;;18.70;99.90;;;;;;4991693;28;20204;-70
2021/09/16 06:05:47;;;;;;;6.82;6.15;;;19.00;99.90;;;;;;4991327;28;20216;-70
2021/09/16 06:08:15;;;;;;;7.82;6.97;;;19.00;99.90;;;;;;4991475;28;20217;-71
2021/09/16 06:10:42;;;;;;;8.05;7.25;;;19.00;99.90;;;;;;4983176;28;20212;-76
2021/09/16 06:13:09;;;;;;;10.75;8.20;;;19.20;99.90;;;;;;4991486;28;20669;-71
2021/09/16 06:15:37;;;;;;;8.43;7.63;;;19.30;99.90;;;;;;4991024;28;20205;-71
2021/09/16 06:18:05;;;;;;;9.30;7.75;;;19.20;99.90;;;;;;4986487;28;20216;-71
2021/09/16 06:20:32;;;;;;;7.93;6.88;;;19.10;99.90;;;;;;4989069;28;20207;-69
2021/09/16 06:22:59;;;;;;;9.65;7.25;;;19.10;99.90;;;;;;4989702;28;20219;-70
2021/09/16 06:25:28;;;;;;;8.95;7.28;;;19.10;99.90;;;;;;4991659;28;20212;-71
2021/09/16 06:27:55;;;;;;;7.40;6.68;;;19.00;99.90;;;;;;4991226;28;20267;-69
2021/09/16 06:30:22;;;;;;;9.20;6.15;;;19.00;99.90;;;;;;4991207;28;20205;-69
2021/09/16 06:32:51;;;;;;;6.88;5.93;;;19.10;99.90;;;;;;4991969;28;20217;-70
2021/09/16 06:35:20;;;;;;;7.50;6.70;;;19.20;99.90;;;;;;4991372;28;20676;-71
2021/09/16 06:37:47;;;;;;;6.40;5.80;;;19.00;99.90;;;;;;4984201;28;20667;-73
2021/09/16 06:40:14;;;;;;;5.72;5.22;;;19.10;99.90;;;;;;4989498;28;20212;-70
2021/09/16 06:42:41;;;;;;;6.05;5.45;;;19.20;99.90;;;;;;4991161;28;20220;-73
2021/09/16 06:45:10;;;;;;;6.80;5.90;;;19.30;99.90;;;;;;4991167;28;20220;-70
2021/09/16 06:47:38;;;;;;;8.10;5.72;;;19.30;99.90;;;;;;4990784;28;20683;-72
2021/09/16 06:50:08;;;;;;;8.30;6.68;;;19.30;99.90;;;;;;4989543;28;20215;-73
2021/09/16 06:52:35;;;;;;;7.53;5.75;;;19.30;99.90;;;;;;4990905;28;20239;-71
2021/09/16 06:55:03;;;;;;;12.82;6.05;;;19.30;99.90;;;;;;4990789;28;20632;-71
2021/09/16 06:57:30;;;;;;;10.13;5.88;;;19.30;99.90;;;;;;4991115;28;20602;-71
2021/09/16 06:59:57;;;;;;;8.32;5.75;;;19.40;99.90;;;;;;4990946;28;20216;-72
2021/09/16 07:02:25;;;;;;;7.35;5.38;;;19.40;99.90;;;;;;4989165;28;20200;-69
2021/09/16 07:04:52;;;;;;;6.72;5.55;;;19.40;99.90;;;;;;4989760;28;20599;-70
2021/09/16 07:07:21;;;;;;;6.53;5.88;;;19.40;99.90;;;;;;4990381;28;20295;-70
2021/09/16 07:09:48;;;;;;;7.85;5.97;;;19.40;99.90;;;;;;4990567;28;20208;-70
2021/09/16 07:12:15;;;;;;;6.72;6.13;;;19.30;99.90;;;;;;4990119;28;20241;-71
2021/09/16 07:14:42;;;;;;;7.53;6.13;;;19.30;99.90;;;;;;4991041;28;20208;-73
2021/09/16 07:17:09;;;;;;;9.18;6.38;;;19.30;99.90;;;;;;4989396;28;20212;-72
2021/09/16 07:19:36;;;;;;;8.45;7.28;;;19.30;99.90;;;;;;4990954;28;20224;-71
2021/09/16 07:22:04;;;;;;;6.45;5.85;;;19.40;99.90;;;;;;4990536;28;20209;-71
2021/09/16 07:24:32;;;;;;;9.40;6.40;;;19.50;99.90;;;;;;4990404;28;20208;-71
2021/09/16 07:26:59;;;;;;;7.93;5.70;;;19.40;99.90;;;;;;4988607;28;20251;-71
2021/09/16 07:29:27;;;;;;;10.32;7.00;;;19.30;99.90;;;;;;4989366;28;20574;-71
2021/09/16 07:31:55;;;;;;;7.03;6.18;;;19.30;99.90;;;;;;4990053;28;20587;-70
2021/09/16 07:34:23;;;;;;;7.50;6.13;;;19.30;99.90;;;;;;4990991;28;20205;-71
2021/09/16 07:36:50;;;;;;;8.45;7.07;;;19.40;99.90;;;;;;4990513;28;20208;-71
2021/09/16 07:39:19;;;;;;;7.03;6.32;;;19.30;99.90;;;;;;4991078;28;20586;-71
2021/09/16 07:41:48;;;;;;;7.65;6.15;;;19.30;99.90;;;;;;4990612;28;20205;-70
2021/09/16 07:44:16;;;;;;;6.65;5.60;;;19.50;99.90;;;;;;4990195;28;20591;-70
2021/09/16 07:46:43;;;;;;;6.13;5.53;;;19.50;99.90;;;;;;4989816;28;20228;-68
2021/09/16 07:49:10;;;;;;;7.57;6.68;;;19.60;99.90;;;;;;4985899;28;20216;-70
2021/09/16 07:51:37;;;;;;;7.10;5.38;;;19.70;99.90;;;;;;4989663;28;20217;-73
2021/09/16 07:54:04;;;;;;;9.13;6.65;;;19.70;99.90;;;;;;4990085;28;20209;-71
2021/09/16 07:56:31;;;;;;;10.93;6.35;;;19.90;99.90;;;;;;4990495;28;20205;-72
2021/09/16 07:59:00;;;;;;;8.93;7.82;;;19.80;99.90;;;;;;4988983;28;20209;-73
2021/09/16 08:01:27;;;;;;;10.43;9.02;;;19.80;99.90;;;;;;4988968;28;20212;-69
2021/09/16 08:03:54;;;;;;;9.27;8.07;;;19.90;99.90;;;;;;4989321;28;20212;-71
2021/09/16 08:06:21;;;;;;;9.18;7.93;;;19.90;99.90;;;;;;4989912;28;20216;-72
2021/09/16 08:08:48;;;;;;;9.32;7.75;;;19.90;99.90;;;;;;4988998;28;20236;-72
2021/09/16 08:11:15;;;;;;;10.20;7.35;;;20.10;99.90;;;;;;4989041;28;20231;-70
2021/09/16 08:13:42;;;;;;;10.45;8.13;;;20.00;99.90;;;;;;4989488;28;20209;-71
2021/09/16 08:16:11;;;;;;;9.02;8.13;;;20.20;99.90;;;;;;4989995;28;20593;-70
2021/09/16 08:18:38;;;;;;;8.75;7.82;;;20.30;99.90;;;;;;4990685;28;20235;-70
2021/09/16 08:21:05;;;;;;;8.57;7.60;;;20.40;99.90;;;;;;4985054;28;20578;-72
2021/09/16 08:23:32;;;;;;;11.73;8.68;;;20.40;99.90;;;;;;4986897;28;20216;-73
2021/09/16 08:26:00;;;;;;;11.75;8.63;;;20.40;99.90;;;;;;4989073;28;20209;-73
2021/09/16 08:28:27;;;;;;;8.73;7.32;;;20.30;99.90;;;;;;4988733;28;20742;-70
2021/09/16 08:30:54;;;;;;;7.97;7.22;;;20.10;99.90;;;;;;4991076;28;20213;-72
2021/09/16 08:33:22;;;;;;;10.02;8.00;;;20.10;99.90;;;;;;4994264;28;20237;-70
2021/09/16 08:35:50;;;;;;;11.65;8.18;;;20.20;99.90;;;;;;4993236;28;20244;-70
2021/09/16 08:38:17;;;;;;;9.70;8.70;;;20.20;99.90;;;;;;4993468;28;20586;-70
2021/09/16 08:40:44;;;;;;;9.48;6.95;;;20.10;99.90;;;;;;4991902;28;20216;-70
2021/09/16 08:43:12;;;;;;;8.57;7.13;;;20.20;99.90;;;;;;4993475;28;20213;-72
2021/09/16 08:45:39;;;;;;;8.65;7.22;;;20.40;99.90;;;;;;4993269;28;20570;-70
2021/09/16 08:48:08;;;;;;;10.00;7.60;;;20.80;99.90;;;;;;4993317;28;20248;-70
2021/09/16 08:50:36;;;;;;;7.45;6.20;;;20.90;99.90;;;;;;4992910;28;20589;-70
2021/09/16 08:53:03;;;;;;;9.35;7.47;;;20.80;99.90;;;;;;4993240;28;20213;-70
2021/09/16 08:55:30;;;;;;;6.90;6.28;;;21.00;99.90;;;;;;4993621;28;20205;-71
2021/09/16 08:58:00;;;;;;;7.88;6.95;;;21.10;99.90;;;;;;4991036;28;20209;-70
2021/09/16 09:00:28;;;;;;;7.45;6.45;;;21.30;99.90;;;;;;4992125;28;20222;-69
2021/09/16 09:02:57;;;;;;;8.77;6.55;;;21.40;99.90;;;;;;4993099;28;20216;-70
2021/09/16 09:05:26;;;;;;;6.68;5.95;;;21.60;99.90;;;;;;4993062;28;20581;-69
2021/09/16 09:07:57;;;;;;;10.18;6.95;;;21.70;99.90;;;;;;4991139;28;20236;-69
2021/09/16 09:10:40;;;;;;;10.27;6.85;;;21.80;99.90;;;;;;4992591;28;20212;-68
2021/09/16 09:13:10;;;;;;;11.45;7.53;;;22.00;99.90;;;;;;4991354;28;20693;-69
2021/09/16 09:15:39;;;;;;;11.15;8.13;;;21.90;99.90;;;;;;4993116;28;20205;-70
2021/09/16 09:18:08;;;;;;;6.90;6.28;;;21.80;99.90;;;;;;4991958;28;20696;-68
2021/09/16 09:20:54;;;;;;;9.40;7.65;;;22.00;99.90;;;;;;4992945;28;20220;-68
2021/09/16 09:23:25;;;;;;;7.68;5.72;;;22.30;99.90;;;;;;4992879;28;20700;-70
2021/09/16 09:25:52;;;;;;;8.48;6.57;;;22.60;99.90;;;;;;4991276;28;20209;-69
2021/09/16 09:28:35;;;;;;;8.82;5.88;;;22.70;99.90;;;;;;4993355;28;20253;-70
2021/09/16 09:31:14;;;;;;;10.30;6.68;;;22.70;99.90;;;;;;4992093;28;20209;-69
2021/09/16 09:33:41;;;;;;;7.32;6.07;;;22.70;99.90;;;;;;4991466;28;20219;-69
2021/09/16 09:36:11;;;;;;;6.70;5.40;;;22.50;99.90;;;;;;4992368;28;20205;-69
2021/09/16 09:38:51;;;;;;;7.45;6.07;;;22.30;99.90;;;;;;4991417;28;20224;-71
2021/09/16 09:41:30;;;;;;;8.38;6.85;;;22.40;99.90;;;;;;4991447;28;20661;-72
2021/09/16 09:44:17;;;;;;;6.82;5.70;;;22.30;99.90;;;;;;4992064;28;20208;-75
2021/09/16 09:46:48;;;;;;;6.65;5.75;;;22.20;99.90;;;;;;4978086;28;20224;-73
2021/09/16 09:49:17;;;;;;;7.10;5.57;;;21.90;99.90;;;;;;4992313;28;20265;-73
2021/09/16 09:51:48;;;;;;;8.90;6.50;;;21.70;99.90;;;;;;4991162;28;20224;-73
2021/09/16 09:54:21;;;;;;;7.38;6.68;;;21.80;99.90;;;;;;4991738;28;20205;-70
2021/09/16 09:57:04;;;;;;;9.82;6.63;;;21.90;99.90;;;;;;4992468;28;20212;-70
2021/09/16 09:59:59;;;;;;;7.72;6.53;;;22.00;99.90;;;;;;4987694;28;20244;-68
2021/09/16 10:02:30;;;;;;;7.47;6.55;;;22.10;99.90;;;;;;4992351;28;20217;-70
2021/09/16 10:04:57;;;;;;;6.95;6.35;;;22.20;99.90;;;;;;4991751;28;20204;-69
2021/09/16 10:07:30;;;;;;;7.47;6.72;;;22.20;99.90;;;;;;4992016;28;20233;-68
2021/09/16 10:10:00;;;;;;;9.60;7.55;;;22.20;99.90;;;;;;4991622;28;20623;-68
2021/09/16 10:12:28;;;;;;;24.00;10.52;;;22.10;99.90;;;;;;4991934;28;20208;-68
2021/09/16 10:14:55;;;;;;;37.45;12.70;;;22.20;99.90;;;;;;4991625;28;20292;-68
2021/09/16 10:17:22;;;;;;;18.10;8.40;;;22.50;99.90;;;;;;4991536;28;20216;-68
2021/09/16 10:19:50;;;;;;;8.45;6.70;;;22.90;99.90;;;;;;4992044;28;20288;-68
2021/09/16 10:22:17;;;;;;;8.65;6.32;;;23.10;99.90;;;;;;4991932;28;20209;-68
2021/09/16 10:24:46;;;;;;;7.80;6.45;;;22.90;99.90;;;;;;4991690;28;20216;-68
2021/09/16 10:27:40;;;;;;;8.45;6.10;;;23.00;99.90;;;;;;4991405;28;20706;-68
2021/09/16 10:30:30;;;;;;;6.65;4.68;;;23.70;99.90;;;;;;4988405;28;20607;-68
2021/09/16 10:33:05;;;;;;;6.03;5.47;;;24.60;99.90;;;;;;4986443;28;20274;-68
2021/09/16 10:35:34;;;;;;;8.48;5.22;;;25.10;99.90;;;;;;4992159;28;20255;-68
2021/09/16 10:38:23;;;;;;;5.82;5.22;;;25.50;99.90;;;;;;4991363;28;20599;-68
2021/09/16 10:41:09;;;;;;;6.95;6.30;;;24.40;99.90;;;;;;4978754;28;20672;-68
2021/09/16 10:43:38;;;;;;;6.47;5.95;;;24.00;99.90;;;;;;4988770;28;20208;-68
2021/09/16 10:46:28;;;;;;;9.30;6.95;;;23.90;99.90;;;;;;4990818;28;20201;-68
2021/09/16 10:48:55;;;;;;;8.38;6.40;;;24.10;99.90;;;;;;4991464;28;20248;-69
2021/09/16 10:51:43;;;;;;;6.47;5.88;;;23.70;99.90;;;;;;4991215;28;20582;-69
2021/09/16 10:54:41;;;;;;;9.90;8.23;;;23.10;99.90;;;;;;4987538;28;20205;-69
2021/09/16 10:57:11;;;;;;;7.15;6.20;;;22.70;99.90;;;;;;4911888;29;20289;-68
2021/09/16 11:00:10;;;;;;;5.30;4.80;;;22.50;99.90;;;;;;4975192;28;20212;-68
2021/09/16 11:03:10;;;;;;;7.95;5.55;;;22.30;99.90;;;;;;4991328;28;20263;-68
2021/09/16 11:05:50;;;;;;;5.30;4.47;;;22.60;99.90;;;;;;4991180;28;20296;-68
2021/09/16 11:08:19;;;;;;;5.63;5.13;;;22.80;99.90;;;;;;4990807;28;20335;-69
2021/09/16 11:11:00;;;;;;;6.25;5.65;;;23.60;99.90;;;;;;4991037;28;20587;-69
2021/09/16 11:13:53;;;;;;;7.13;6.45;;;23.70;99.90;;;;;;4991049;28;20212;-70
2021/09/16 11:16:27;;;;;;;9.52;7.10;;;23.70;99.90;;;;;;4991497;28;20209;-71
2021/09/16 11:19:05;;;;;;;6.75;6.15;;;23.60;99.90;;;;;;4990929;28;20212;-69
2021/09/16 11:21:33;;;;;;;9.25;7.13;;;23.50;99.90;;;;;;4990876;28;20263;-70
2021/09/16 11:24:05;;;;;;;8.88;8.07;;;23.30;99.90;;;;;;4990492;28;20216;-71
2021/09/16 11:26:32;;;;;;;10.27;8.48;;;22.80;99.90;;;;;;4990705;28;20685;-71
2021/09/16 11:29:01;;;;;;;9.30;7.10;;;22.60;99.90;;;;;;4990633;28;20720;-71
2021/09/16 11:31:30;;;;;;;7.82;6.25;;;22.70;99.90;;;;;;4987822;28;20220;-70
2021/09/16 11:34:12;;;;;;;9.65;7.10;;;23.40;99.90;;;;;;4989139;28;20561;-71
2021/09/16 11:37:08;;;;;;;10.35;7.93;;;23.60;99.90;;;;;;4990383;28;20660;-70
2021/09/16 11:39:35;;;;;;;9.57;8.68;;;23.50;99.90;;;;;;4987089;28;20208;-68
2021/09/16 11:42:20;;;;;;;9.05;8.07;;;23.30;99.90;;;;;;4990306;28;20219;-71
2021/09/16 11:44:58;;;;;;;11.85;7.97;;;23.30;99.90;;;;;;4978997;28;20217;-72
2021/09/16 11:47:28;;;;;;;11.35;8.38;;;23.50;99.90;;;;;;4990478;28;20583;-70
2021/09/16 11:49:55;;;;;;;9.13;8.23;;;23.90;99.90;;;;;;4988459;28;20734;-70
2021/09/16 11:52:24;;;;;;;6.75;6.05;;;24.00;99.90;;;;;;4990563;28;20220;-70
2021/09/16 11:55:11;;;;;;;8.32;7.03;;;23.90;99.90;;;;;;4990704;28;20263;-71
2021/09/16 11:58:12;;;;;;;7.88;7.18;;;23.70;99.90;;;;;;4990753;28;20232;-71
2021/09/16 12:00:43;;;;;;;9.30;8.20;;;23.50;99.90;;;;;;4990917;28;20197;-72
2021/09/16 12:03:14;;;;;;;9.73;7.32;;;23.40;99.90;;;;;;4990393;28;20209;-69
2021/09/16 12:05:43;;;;;;;10.23;7.85;;;23.30;99.90;;;;;;4991979;28;21083;-70
2021/09/16 12:08:12;;;;;;;8.90;7.88;;;23.40;99.90;;;;;;4993542;28;20244;-68
2021/09/16 12:10:43;;;;;;;9.02;7.70;;;23.80;99.90;;;;;;4992163;28;20674;-69
2021/09/16 12:13:14;;;;;;;7.85;7.05;;;24.20;99.90;;;;;;4993631;28;20251;-69
2021/09/16 12:15:41;;;;;;;7.53;6.45;;;24.30;99.90;;;;;;4993038;28;20288;-72
2021/09/16 12:18:09;;;;;;;7.93;6.80;;;24.80;99.90;;;;;;4991854;28;20233;-71
2021/09/16 12:20:40;;;;;;;13.40;6.78;;;25.10;99.90;;;;;;4993697;28;20209;-73
2021/09/16 12:23:12;;;;;;;5.63;5.05;;;25.40;99.90;;;;;;4993066;28;20213;-73
2021/09/16 12:25:57;;;;;;;7.63;6.13;;;25.30;99.90;;;;;;4993931;28;20259;-71
2021/09/16 12:28:26;;;;;;;6.43;5.75;;;25.00;99.90;;;;;;4992536;28;20252;-71
2021/09/16 12:30:53;;;;;;;6.47;5.57;;;24.70;99.90;;;;;;4993157;28;20624;-70
2021/09/16 12:33:41;;;;;;;6.85;6.28;;;24.70;99.90;;;;;;4993881;28;20592;-70
2021/09/16 12:36:20;;;;;;;6.78;6.00;;;24.50;99.90;;;;;;4987379;28;20668;-70
2021/09/16 12:38:50;;;;;;;6.35;5.80;;;24.30;99.90;;;;;;4993801;28;20208;-70
2021/09/16 12:41:24;;;;;;;6.78;5.93;;;24.20;99.90;;;;;;4993898;28;20594;-70
2021/09/16 12:43:56;;;;;;;6.97;6.38;;;24.10;99.90;;;;;;4993951;28;20200;-70
2021/09/16 12:46:23;;;;;;;7.43;6.50;;;24.50;99.90;;;;;;4980997;28;20205;-71
2021/09/16 12:48:50;;;;;;;10.73;6.80;;;24.90;99.90;;;;;;4994024;28;20228;-71
2021/09/16 12:51:22;;;;;;;6.38;5.75;;;24.80;99.90;;;;;;4992993;28;20212;-71
2021/09/16 12:53:50;;;;;;;8.55;6.10;;;24.70;99.90;;;;;;4991159;28;20219;-69
2021/09/16 12:56:18;;;;;;;9.35;7.40;;;24.40;99.90;;;;;;4991635;28;20279;-70
2021/09/16 12:58:46;;;;;;;8.35;6.03;;;24.50;99.90;;;;;;4993354;28;20719;-70